createdAt,value
2019-01-28T00:01:32.938Z,5.78
2019-01-28T00:03:57.414Z,5.75
2019-01-28T00:06:21.806Z,5.66
2019-01-28T00:08:46.311Z,5.92
2019-01-28T00:11:10.720Z,5.81
2019-01-28T00:13:35.178Z,5.67
2019-01-28T00:15:59.602Z,6.01
2019-01-28T00:18:23.998Z,6.09
2019-01-28T00:20:48.433Z,5.88
2019-01-28T00:23:12.839Z,6.03
2019-01-28T00:25:37.237Z,5.75
2019-01-28T00:28:01.648Z,5.67
2019-01-28T00:30:26.057Z,5.52
2019-01-28T00:32:50.452Z,5.35
2019-01-28T00:35:14.831Z,5.47
2019-01-28T00:37:39.236Z,5.30
2019-01-28T00:40:05.065Z,5.50
2019-01-28T00:42:29.463Z,5.45
2019-01-28T00:44:53.878Z,5.57
2019-01-28T00:47:18.282Z,5.47
2019-01-28T00:49:42.690Z,5.75
2019-01-28T00:52:07.063Z,5.29
2019-01-28T00:54:31.467Z,5.59
2019-01-28T00:56:55.864Z,5.23
2019-01-28T00:59:20.256Z,5.38
2019-01-28T01:01:44.680Z,5.48
2019-01-28T01:04:09.086Z,5.40
2019-01-28T01:06:33.521Z,5.80
2019-01-28T01:08:57.902Z,5.27
2019-01-28T01:11:22.296Z,5.86
2019-01-28T01:13:46.711Z,6.09
2019-01-28T01:16:11.101Z,5.61
2019-01-28T01:18:35.521Z,5.68
2019-01-28T01:20:59.931Z,6.22
2019-01-28T01:23:24.342Z,5.88
2019-01-28T01:25:48.748Z,5.55
2019-01-28T01:28:13.163Z,5.03
2019-01-28T01:30:37.558Z,5.35
2019-01-28T01:33:01.969Z,5.16
2019-01-28T01:35:26.455Z,5.36
2019-01-28T01:37:52.358Z,5.53
2019-01-28T01:40:17.362Z,5.29
2019-01-28T01:42:41.834Z,5.41
2019-01-28T01:45:09.599Z,5.33
2019-01-28T01:47:36.759Z,5.87
2019-01-28T01:50:01.160Z,5.45
2019-01-28T01:52:25.558Z,5.62
2019-01-28T01:54:50.039Z,5.73
2019-01-28T01:57:14.384Z,5.42
2019-01-28T01:59:38.782Z,5.60
2019-01-28T02:02:03.279Z,5.10
2019-01-28T02:04:27.660Z,5.16
2019-01-28T02:06:52.092Z,5.63
2019-01-28T02:09:16.489Z,5.30
2019-01-28T02:11:40.910Z,5.49
2019-01-28T02:14:05.380Z,5.45
2019-01-28T02:16:31.322Z,5.56
2019-01-28T02:18:55.711Z,5.10
2019-01-28T02:21:20.142Z,5.44
2019-01-28T02:23:44.515Z,5.25
2019-01-28T02:26:08.921Z,5.20
2019-01-28T02:28:33.323Z,5.24
2019-01-28T02:30:57.730Z,5.39
2019-01-28T02:33:22.135Z,5.10
2019-01-28T02:35:46.543Z,4.90
2019-01-28T02:38:10.943Z,4.79
2019-01-28T02:40:35.338Z,4.73
2019-01-28T02:42:59.736Z,5.02
2019-01-28T02:45:24.322Z,4.83
2019-01-28T02:47:48.709Z,4.99
2019-01-28T02:50:15.514Z,5.15
2019-01-28T02:52:39.904Z,5.12
2019-01-28T02:55:05.195Z,5.05
2019-01-28T02:57:29.591Z,5.39
2019-01-28T02:59:54.007Z,5.11
2019-01-28T03:02:18.420Z,5.12
2019-01-28T03:04:42.810Z,4.97
2019-01-28T03:07:07.235Z,5.28
2019-01-28T03:09:31.634Z,5.07
2019-01-28T03:11:56.028Z,5.03
2019-01-28T03:14:20.434Z,4.80
2019-01-28T03:16:44.822Z,5.03
2019-01-28T03:19:09.240Z,5.13
2019-01-28T03:21:33.643Z,5.14
2019-01-28T03:23:58.039Z,4.93
2019-01-28T03:26:22.455Z,4.97
2019-01-28T03:28:46.849Z,4.46
2019-01-28T03:31:11.272Z,4.73
2019-01-28T03:33:35.661Z,4.40
2019-01-28T03:36:00.044Z,4.16
2019-01-28T03:38:24.438Z,4.55
2019-01-28T03:40:48.853Z,4.30
2019-01-28T03:43:13.259Z,4.35
2019-01-28T03:45:37.651Z,4.33
2019-01-28T03:48:04.392Z,4.28
2019-01-28T03:50:28.772Z,4.86
2019-01-28T03:52:53.264Z,4.77
2019-01-28T03:55:17.721Z,4.50
2019-01-28T03:57:42.283Z,4.59
2019-01-28T04:00:09.750Z,4.91
2019-01-28T04:02:34.148Z,4.64
2019-01-28T04:04:58.539Z,4.87
2019-01-28T04:07:22.948Z,4.97
2019-01-28T04:09:47.435Z,4.95
2019-01-28T04:12:11.885Z,4.91
2019-01-28T04:14:36.265Z,4.97
2019-01-28T04:17:00.715Z,4.50
2019-01-28T04:19:25.094Z,4.79
2019-01-28T04:21:49.490Z,4.83
2019-01-28T04:24:13.894Z,4.90
2019-01-28T04:26:38.282Z,4.89
2019-01-28T04:29:02.680Z,4.94
2019-01-28T04:31:28.242Z,4.47
2019-01-28T04:33:52.666Z,5.03
2019-01-28T04:36:17.047Z,4.99
2019-01-28T04:38:41.439Z,4.56
2019-01-28T04:41:05.844Z,4.85
2019-01-28T04:43:30.246Z,4.78
2019-01-28T04:45:54.673Z,4.97
2019-01-28T04:48:19.071Z,5.01
2019-01-28T04:50:43.476Z,4.85
2019-01-28T04:53:07.876Z,4.66
2019-01-28T04:55:32.283Z,4.91
2019-01-28T04:57:56.704Z,4.50
2019-01-28T05:00:25.916Z,4.96
2019-01-28T05:02:50.401Z,4.72
2019-01-28T05:05:15.072Z,4.91
2019-01-28T05:07:39.554Z,5.10
2019-01-28T05:10:07.269Z,5.13
2019-01-28T05:12:31.679Z,4.77
2019-01-28T05:14:56.081Z,4.88
2019-01-28T05:17:20.476Z,5.02
2019-01-28T05:19:44.909Z,4.56
2019-01-28T05:22:09.305Z,4.82
2019-01-28T05:24:33.725Z,4.63
2019-01-28T05:26:58.123Z,4.34
2019-01-28T05:29:22.516Z,4.41
2019-01-28T05:31:46.963Z,4.92
2019-01-28T05:34:11.363Z,4.93
2019-01-28T05:36:35.801Z,4.87
2019-01-28T05:39:00.215Z,4.83
2019-01-28T05:41:24.645Z,5.02
2019-01-28T05:43:49.050Z,5.03
2019-01-28T05:46:13.516Z,5.24
2019-01-28T05:48:37.909Z,5.17
2019-01-28T05:51:02.292Z,5.06
2019-01-28T05:53:26.711Z,4.59
2019-01-28T05:55:51.106Z,5.08
2019-01-28T05:58:15.516Z,5.24
2019-01-28T06:00:41.539Z,5.51
2019-01-28T06:03:06.016Z,5.01
2019-01-28T06:05:30.502Z,4.98
2019-01-28T06:07:54.883Z,5.00
2019-01-28T06:10:19.285Z,5.00
2019-01-28T06:12:43.755Z,4.94
2019-01-28T06:15:14.147Z,4.65
2019-01-28T06:17:39.147Z,5.16
2019-01-28T06:20:04.854Z,4.94
2019-01-28T06:22:29.259Z,5.47
2019-01-28T06:24:53.648Z,5.49
2019-01-28T06:27:18.066Z,5.60
2019-01-28T06:29:42.441Z,5.35
2019-01-28T06:32:06.862Z,5.58
2019-01-28T06:34:31.254Z,5.51
2019-01-28T06:36:55.672Z,5.62
2019-01-28T06:39:20.100Z,5.67
2019-01-28T06:41:44.470Z,5.72
2019-01-28T06:44:08.888Z,5.71
2019-01-28T06:46:33.293Z,5.63
2019-01-28T06:48:57.680Z,5.55
2019-01-28T06:51:22.087Z,5.31
2019-01-28T06:53:46.478Z,5.44
2019-01-28T06:56:10.878Z,5.49
2019-01-28T06:58:35.258Z,5.59
2019-01-28T07:00:59.688Z,5.32
2019-01-28T07:03:24.157Z,5.33
2019-01-28T07:05:48.591Z,4.81
2019-01-28T07:08:12.975Z,4.78
2019-01-28T07:10:37.364Z,5.47
2019-01-28T07:13:01.762Z,5.48
2019-01-28T07:15:26.224Z,4.78
2019-01-28T07:17:54.979Z,5.54
2019-01-28T07:20:23.679Z,5.59
2019-01-28T07:22:48.090Z,5.54
2019-01-28T07:25:12.601Z,5.51
2019-01-28T07:27:37.003Z,5.55
2019-01-28T07:30:01.424Z,5.65
2019-01-28T07:32:25.806Z,5.39
2019-01-28T07:34:50.215Z,5.38
2019-01-28T07:37:14.609Z,5.62
2019-01-28T07:39:39.015Z,5.75
2019-01-28T07:42:03.425Z,5.60
2019-01-28T07:44:27.814Z,5.77
2019-01-28T07:46:52.247Z,5.93
2019-01-28T07:49:16.619Z,5.94
2019-01-28T07:51:42.666Z,5.94
2019-01-28T07:54:07.055Z,5.83
2019-01-28T07:56:33.235Z,5.69
2019-01-28T07:58:57.653Z,5.76
2019-01-28T08:01:22.035Z,5.65
2019-01-28T08:03:46.441Z,5.47
2019-01-28T08:06:10.963Z,5.84
2019-01-28T08:08:35.438Z,5.48
2019-01-28T08:10:59.834Z,5.65
2019-01-28T08:13:24.216Z,5.64
2019-01-28T08:15:48.625Z,5.98
2019-01-28T08:18:13.013Z,6.00
2019-01-28T08:20:37.407Z,6.01
2019-01-28T08:23:01.811Z,6.09
2019-01-28T08:25:26.223Z,6.03
2019-01-28T08:27:50.677Z,5.86
2019-01-28T08:30:23.695Z,6.01
2019-01-28T08:32:48.072Z,5.97
2019-01-28T08:35:12.995Z,5.95
2019-01-28T08:37:37.417Z,5.94
2019-01-28T08:40:01.802Z,5.93
2019-01-28T08:42:26.218Z,6.13
2019-01-28T08:44:50.615Z,6.17
2019-01-28T08:47:15.102Z,6.08
2019-01-28T08:49:39.497Z,6.11
2019-01-28T08:52:04.157Z,6.13
2019-01-28T08:54:28.648Z,6.11
2019-01-28T08:56:53.032Z,6.14
2019-01-28T08:59:17.433Z,6.14
2019-01-28T09:01:41.915Z,6.18
2019-01-28T09:04:06.372Z,6.11
2019-01-28T09:06:30.779Z,5.93
2019-01-28T09:08:55.258Z,6.17
2019-01-28T09:11:19.734Z,6.18
2019-01-28T09:13:44.128Z,5.88
2019-01-28T09:16:08.532Z,6.15
2019-01-28T09:18:32.923Z,6.28
2019-01-28T09:20:57.318Z,6.30
2019-01-28T09:23:22.657Z,6.36
2019-01-28T09:25:47.129Z,6.30
2019-01-28T09:28:11.608Z,6.48
2019-01-28T09:30:36.662Z,6.15
2019-01-28T09:33:01.114Z,6.30
2019-01-28T09:35:25.705Z,6.41
2019-01-28T09:37:50.169Z,6.45
2019-01-28T09:40:20.285Z,6.50
2019-01-28T09:42:44.783Z,6.26
2019-01-28T09:45:12.209Z,6.43
2019-01-28T09:47:36.687Z,6.53
2019-01-28T09:50:03.974Z,6.49
2019-01-28T09:52:28.374Z,6.67
2019-01-28T09:54:52.800Z,6.55
2019-01-28T09:57:17.180Z,6.63
2019-01-28T09:59:41.557Z,6.80
2019-01-28T10:02:05.965Z,6.73
2019-01-28T10:04:30.414Z,6.73
2019-01-28T10:06:54.841Z,6.75
2019-01-28T10:09:19.223Z,6.37
2019-01-28T10:11:43.625Z,6.81
2019-01-28T10:14:08.116Z,6.74
2019-01-28T10:16:32.509Z,6.80
2019-01-28T10:18:56.929Z,6.79
2019-01-28T10:21:21.364Z,6.91
2019-01-28T10:23:45.808Z,6.95
2019-01-28T10:26:10.199Z,6.75
2019-01-28T10:28:34.669Z,6.79
2019-01-28T10:30:59.153Z,6.96
2019-01-28T10:33:23.542Z,7.11
2019-01-28T10:35:48.084Z,7.10
2019-01-28T10:38:12.921Z,6.65
2019-01-28T10:40:42.157Z,7.13
2019-01-28T10:43:07.525Z,7.13
2019-01-28T10:45:31.921Z,7.19
2019-01-28T10:48:00.617Z,7.19
2019-01-28T10:50:24.533Z,7.29
2019-01-28T10:52:49.127Z,7.28
2019-01-28T10:55:15.541Z,7.23
2019-01-28T10:57:39.946Z,7.29
2019-01-28T11:00:11.588Z,7.14
2019-01-28T11:02:33.649Z,7.32
2019-01-28T11:04:58.036Z,7.24
2019-01-28T11:07:22.515Z,7.09
2019-01-28T11:09:46.965Z,7.23
2019-01-28T11:12:11.432Z,7.28
2019-01-28T11:14:35.902Z,7.11
2019-01-28T11:17:00.350Z,7.49
2019-01-28T11:19:24.874Z,7.60
2019-01-28T11:21:49.263Z,7.67
2019-01-28T11:24:13.614Z,7.77
2019-01-28T11:26:38.049Z,7.77
2019-01-28T11:29:02.427Z,7.67
2019-01-28T11:31:26.924Z,7.69
2019-01-28T11:33:51.328Z,7.69
2019-01-28T11:36:15.798Z,7.66
2019-01-28T11:38:40.313Z,7.64
2019-01-28T11:41:04.994Z,7.79
2019-01-28T11:43:29.396Z,7.71
2019-01-28T11:45:56.577Z,7.68
2019-01-28T11:48:21.280Z,7.64
2019-01-28T11:50:45.749Z,7.61
2019-01-28T11:53:10.159Z,7.83
2019-01-28T11:55:34.624Z,7.78
2019-01-28T11:57:59.006Z,7.83
2019-01-28T12:00:36.611Z,7.80
2019-01-28T12:03:00.992Z,7.83
2019-01-28T12:05:25.399Z,7.69
2019-01-28T12:07:49.872Z,7.76
2019-01-28T12:10:14.392Z,7.73
2019-01-28T12:12:38.799Z,7.71
2019-01-28T12:15:03.875Z,7.72
2019-01-28T12:17:28.268Z,7.58
2019-01-28T12:19:52.695Z,7.69
2019-01-28T12:22:17.194Z,7.79
2019-01-28T12:24:41.614Z,7.78
2019-01-28T12:27:06.015Z,7.80
2019-01-28T12:29:30.439Z,7.81
2019-01-28T12:31:54.836Z,7.80
2019-01-28T12:34:19.220Z,7.50
2019-01-28T12:36:43.651Z,7.59
2019-01-28T12:39:08.315Z,7.41
2019-01-28T12:41:32.698Z,6.81
2019-01-28T12:43:57.122Z,6.81
2019-01-28T12:46:21.502Z,6.58
2019-01-28T12:48:45.967Z,6.61
2019-01-28T12:51:10.375Z,7.05
2019-01-28T12:53:34.770Z,6.99
2019-01-28T12:55:59.188Z,7.36
2019-01-28T12:58:23.619Z,7.39
2019-01-28T13:00:49.801Z,7.14
2019-01-28T13:03:14.292Z,7.05
2019-01-28T13:05:39.536Z,7.34
2019-01-28T13:08:04.370Z,7.46
2019-01-28T13:10:28.993Z,7.29
2019-01-28T13:12:53.471Z,7.43
2019-01-28T13:15:26.572Z,7.58
2019-01-28T13:17:51.204Z,7.63
2019-01-28T13:20:15.750Z,7.58
2019-01-28T13:22:44.818Z,7.68
2019-01-28T13:25:12.581Z,7.39
2019-01-28T13:27:35.442Z,7.46
2019-01-28T13:29:59.835Z,7.45
2019-01-28T13:32:24.249Z,7.61
2019-01-28T13:34:48.646Z,7.64
2019-01-28T13:37:13.076Z,7.28
2019-01-28T13:39:37.473Z,7.02
2019-01-28T13:42:01.890Z,6.87
2019-01-28T13:44:26.290Z,7.07
2019-01-28T13:46:50.669Z,7.20
2019-01-28T13:49:15.101Z,7.01
2019-01-28T13:51:39.554Z,7.01
2019-01-28T13:54:04.009Z,7.11
2019-01-28T13:56:28.429Z,7.09
2019-01-28T13:58:52.898Z,6.65
2019-01-28T14:01:17.304Z,6.65
2019-01-28T14:03:41.695Z,6.15
2019-01-28T14:06:06.244Z,5.87
2019-01-28T14:08:30.642Z,5.61
2019-01-28T14:10:55.039Z,5.87
2019-01-28T14:13:19.469Z,5.65
2019-01-28T14:15:43.877Z,5.43
2019-01-28T14:18:09.422Z,5.46
2019-01-28T14:20:35.961Z,5.48
2019-01-28T14:23:00.619Z,5.80
2019-01-28T14:25:25.118Z,6.10
2019-01-28T14:27:50.104Z,6.79
2019-01-28T14:30:17.569Z,7.00
2019-01-28T14:32:41.977Z,7.03
2019-01-28T14:35:07.231Z,7.17
2019-01-28T14:37:31.641Z,7.25
2019-01-28T14:39:56.029Z,7.24
2019-01-28T14:42:20.428Z,7.20
2019-01-28T14:44:44.840Z,7.12
2019-01-28T14:47:09.437Z,7.27
2019-01-28T14:49:33.856Z,7.17
2019-01-28T14:51:58.267Z,7.26
2019-01-28T14:54:22.680Z,7.23
2019-01-28T14:56:47.137Z,7.31
2019-01-28T14:59:11.567Z,7.33
2019-01-28T15:01:35.943Z,7.24
2019-01-28T15:04:00.333Z,7.31
2019-01-28T15:06:24.764Z,7.26
2019-01-28T15:08:49.153Z,7.09
2019-01-28T15:11:13.637Z,6.80
2019-01-28T15:13:38.051Z,7.14
2019-01-28T15:16:02.460Z,7.26
2019-01-28T15:18:26.907Z,7.17
2019-01-28T15:20:51.312Z,7.27
2019-01-28T15:23:15.743Z,7.29
2019-01-28T15:25:40.193Z,6.40
2019-01-28T15:28:04.785Z,6.46
2019-01-28T15:30:30.703Z,7.06
2019-01-28T15:32:55.214Z,6.43
2019-01-28T15:35:19.613Z,5.77
2019-01-28T15:37:43.981Z,5.67
2019-01-28T15:40:11.763Z,5.45
2019-01-28T15:42:36.211Z,5.46
2019-01-28T15:45:00.622Z,5.07
2019-01-28T15:47:28.086Z,5.12
2019-01-28T15:49:52.482Z,5.18
2019-01-28T15:52:16.895Z,5.07
2019-01-28T15:54:41.302Z,5.52
2019-01-28T15:57:05.704Z,5.16
2019-01-28T15:59:30.114Z,4.83
2019-01-28T16:01:54.531Z,4.52
2019-01-28T16:04:19.032Z,4.44
2019-01-28T16:06:43.670Z,4.36
2019-01-28T16:09:08.491Z,5.47
2019-01-28T16:11:32.889Z,5.63
2019-01-28T16:13:57.325Z,5.95
2019-01-28T16:16:21.814Z,5.53
2019-01-28T16:18:46.186Z,5.44
2019-01-28T16:21:10.586Z,6.09
2019-01-28T16:23:35.069Z,5.70
2019-01-28T16:25:59.469Z,4.86
2019-01-28T16:28:23.882Z,4.62
2019-01-28T16:30:48.634Z,4.17
2019-01-28T16:33:13.054Z,4.52
2019-01-28T16:35:37.593Z,4.62
2019-01-28T16:38:01.997Z,4.74
2019-01-28T16:40:30.198Z,5.09
2019-01-28T16:42:54.769Z,5.26
2019-01-28T16:45:19.503Z,5.51
2019-01-28T16:47:43.925Z,5.42
2019-01-28T16:50:11.611Z,4.80
2019-01-28T16:52:36.019Z,4.99
2019-01-28T16:55:00.414Z,4.91
2019-01-28T16:57:24.793Z,5.02
2019-01-28T16:59:52.615Z,4.94
2019-01-28T17:02:17.183Z,5.44
2019-01-28T17:04:41.611Z,5.51
2019-01-28T17:07:06.021Z,5.92
2019-01-28T17:09:30.440Z,5.41
2019-01-28T17:11:54.854Z,5.22
2019-01-28T17:14:19.351Z,5.12
2019-01-28T17:16:43.823Z,4.76
2019-01-28T17:19:08.300Z,5.42
2019-01-28T17:21:32.727Z,6.01
2019-01-28T17:23:57.124Z,6.16
2019-01-28T17:26:21.516Z,5.54
2019-01-28T17:28:45.929Z,5.50
2019-01-28T17:31:10.333Z,6.16
2019-01-28T17:33:34.743Z,6.10
2019-01-28T17:35:59.144Z,6.12
2019-01-28T17:38:23.528Z,5.62
2019-01-28T17:40:48.008Z,6.22
2019-01-28T17:43:12.637Z,5.97
2019-01-28T17:45:37.127Z,5.55
2019-01-28T17:48:01.520Z,5.91
2019-01-28T17:50:26.862Z,5.96
2019-01-28T17:52:51.265Z,6.36
2019-01-28T17:55:16.222Z,5.64
2019-01-28T17:57:40.689Z,6.21
2019-01-28T18:00:11.081Z,6.42
2019-01-28T18:02:35.573Z,5.63
2019-01-28T18:04:59.979Z,5.48
2019-01-28T18:07:24.423Z,5.74
2019-01-28T18:09:48.847Z,5.71
2019-01-28T18:12:13.304Z,5.04
2019-01-28T18:14:37.689Z,5.28
2019-01-28T18:17:02.101Z,5.36
2019-01-28T18:19:26.547Z,5.63
2019-01-28T18:21:50.947Z,6.07
2019-01-28T18:24:15.371Z,5.87
2019-01-28T18:26:39.790Z,6.26
2019-01-28T18:29:04.548Z,5.79
2019-01-28T18:31:28.970Z,5.77
2019-01-28T18:33:53.375Z,5.53
2019-01-28T18:36:17.794Z,6.21
2019-01-28T18:38:42.279Z,5.18
2019-01-28T18:41:06.766Z,5.46
2019-01-28T18:43:31.186Z,5.66
2019-01-28T18:45:55.590Z,6.11
2019-01-28T18:48:20.067Z,5.94
2019-01-28T18:50:44.536Z,6.27
2019-01-28T18:53:08.964Z,5.26
2019-01-28T18:55:33.442Z,5.57
2019-01-28T18:57:57.852Z,6.05
2019-01-28T19:00:29.507Z,4.99
2019-01-28T19:02:54.442Z,5.42
2019-01-28T19:05:37.569Z,5.42
2019-01-28T19:08:12.332Z,5.07
2019-01-28T19:10:38.395Z,5.03
2019-01-28T19:13:04.521Z,4.80
2019-01-28T19:15:30.556Z,4.82
2019-01-28T19:17:59.311Z,5.05
2019-01-28T19:20:25.373Z,5.22
2019-01-28T19:22:49.888Z,4.89
2019-01-28T19:25:14.366Z,4.82
2019-01-28T19:27:38.763Z,4.45
2019-01-28T19:30:04.164Z,3.90
2019-01-28T19:32:28.632Z,4.62
2019-01-28T19:34:53.067Z,3.69
2019-01-28T19:37:17.466Z,3.48
2019-01-28T19:39:41.873Z,3.51
2019-01-28T19:42:06.440Z,3.73
2019-01-28T19:44:30.894Z,3.40
2019-01-28T19:46:55.337Z,3.68
2019-01-28T19:49:19.717Z,3.73
2019-01-28T19:51:44.131Z,3.60
2019-01-28T19:54:08.525Z,3.29
2019-01-28T19:56:32.930Z,3.59
2019-01-28T19:58:57.333Z,3.44
2019-01-28T20:01:21.740Z,3.72
2019-01-28T20:03:46.141Z,4.02
2019-01-28T20:06:10.624Z,4.16
2019-01-28T20:08:35.041Z,4.46
2019-01-28T20:10:59.472Z,3.89
2019-01-28T20:13:23.892Z,4.22
2019-01-28T20:15:48.289Z,4.00
2019-01-28T20:18:12.706Z,3.54
2019-01-28T20:20:37.102Z,3.91
2019-01-28T20:23:01.534Z,3.56
2019-01-28T20:25:26.021Z,3.80
2019-01-28T20:27:50.390Z,3.60
2019-01-28T20:30:26.028Z,3.21
2019-01-28T20:32:50.775Z,3.54
2019-01-28T20:35:15.514Z,3.79
2019-01-28T20:37:40.035Z,3.98
2019-01-28T20:40:07.767Z,2.84
2019-01-28T20:42:32.161Z,3.48
2019-01-28T20:44:56.596Z,4.23
2019-01-28T20:47:21.042Z,3.36
2019-01-28T20:49:45.435Z,2.69
2019-01-28T20:52:09.863Z,3.42
2019-01-28T20:54:34.222Z,2.85
2019-01-28T20:56:58.687Z,3.85
2019-01-28T20:59:23.078Z,3.61
2019-01-28T21:01:47.537Z,3.35
2019-01-28T21:04:11.922Z,3.91
2019-01-28T21:06:36.354Z,3.96
2019-01-28T21:09:00.787Z,3.48
2019-01-28T21:11:25.206Z,4.11
2019-01-28T21:13:49.587Z,3.35
2019-01-28T21:16:14.064Z,3.47
2019-01-28T21:18:38.466Z,3.75
2019-01-28T21:21:02.895Z,3.79
2019-01-28T21:23:27.266Z,3.55
2019-01-28T21:25:51.696Z,3.24
2019-01-28T21:28:16.094Z,4.04
2019-01-28T21:30:40.508Z,2.69
2019-01-28T21:33:05.078Z,2.98
2019-01-28T21:35:34.210Z,2.39
2019-01-28T21:38:01.087Z,3.29
2019-01-28T21:40:25.516Z,2.86
2019-01-28T21:42:49.941Z,3.31
2019-01-28T21:45:15.841Z,3.27
2019-01-28T21:47:41.864Z,2.63
2019-01-28T21:50:08.979Z,3.04
2019-01-28T21:52:33.364Z,2.68
2019-01-28T21:54:57.784Z,2.75
2019-01-28T21:57:22.178Z,3.07
2019-01-28T21:59:46.599Z,2.67
2019-01-28T22:02:11.016Z,3.01
2019-01-28T22:04:35.415Z,2.88
2019-01-28T22:06:59.820Z,2.85
2019-01-28T22:09:24.275Z,2.79
2019-01-28T22:11:48.682Z,3.05
2019-01-28T22:14:13.070Z,2.23
2019-01-28T22:16:37.454Z,2.22
2019-01-28T22:19:01.881Z,2.24
2019-01-28T22:21:26.262Z,2.41
2019-01-28T22:23:50.680Z,1.99
2019-01-28T22:26:15.073Z,2.23
2019-01-28T22:28:39.494Z,2.00
2019-01-28T22:31:03.967Z,2.67
2019-01-28T22:33:28.356Z,2.53
2019-01-28T22:35:52.764Z,2.54
2019-01-28T22:38:17.161Z,2.31
2019-01-28T22:40:41.592Z,2.29
2019-01-28T22:43:06.128Z,3.15
2019-01-28T22:45:30.524Z,1.79
2019-01-28T22:47:54.915Z,2.42
2019-01-28T22:50:20.868Z,2.08
2019-01-28T22:52:45.448Z,1.74
2019-01-28T22:55:12.677Z,1.80
2019-01-28T22:57:37.085Z,1.98
2019-01-28T23:00:01.491Z,2.99
2019-01-28T23:08:50.293Z,1.66
2019-01-28T23:11:14.784Z,1.92
2019-01-28T23:13:39.262Z,2.64
2019-01-28T23:16:03.953Z,2.74
2019-01-28T23:18:28.349Z,2.41
2019-01-28T23:20:52.847Z,2.14
2019-01-28T23:23:17.259Z,2.24
2019-01-28T23:25:41.818Z,1.85
2019-01-28T23:28:06.355Z,2.07
2019-01-28T23:30:30.839Z,1.64
2019-01-28T23:32:56.850Z,1.69
2019-01-28T23:35:21.275Z,1.69
2019-01-28T23:37:45.736Z,1.80
2019-01-28T23:40:10.364Z,1.77
2019-01-28T23:42:35.202Z,1.22
2019-01-28T23:44:59.658Z,1.37
2019-01-28T23:47:27.118Z,1.64
2019-01-28T23:49:51.598Z,1.33
2019-01-28T23:52:24.554Z,1.39
2019-01-28T23:54:42.100Z,1.22
2019-01-28T23:57:06.610Z,1.60
2019-01-28T23:59:31.011Z,1.90
